sensor_id;sensor_type;location;lat;lon;timestamp;temperature;humidity
7844;DHT22;3967;48.702;9.326;2023-06-14T00:00:14;19.50;47.30
7844;DHT22;3967;48.702;9.326;2023-06-14T00:02:42;19.50;47.60
7844;DHT22;3967;48.702;9.326;2023-06-14T00:05:09;19.50;47.60
7844;DHT22;3967;48.702;9.326;2023-06-14T00:07:40;19.50;48.00
7844;DHT22;3967;48.702;9.326;2023-06-14T00:10:14;19.30;48.40
7844;DHT22;3967;48.702;9.326;2023-06-14T00:12:41;19.30;48.80
7844;DHT22;3967;48.702;9.326;2023-06-14T00:15:08;19.20;49.30
7844;DHT22;3967;48.702;9.326;2023-06-14T00:17:37;19.20;49.40
7844;DHT22;3967;48.702;9.326;2023-06-14T00:20:06;19.20;49.70
7844;DHT22;3967;48.702;9.326;2023-06-14T00:22:33;19.20;49.70
7844;DHT22;3967;48.702;9.326;2023-06-14T00:25:00;19.20;49.70
7844;DHT22;3967;48.702;9.326;2023-06-14T00:27:40;19.10;50.10
7844;DHT22;3967;48.702;9.326;2023-06-14T00:30:08;19.10;50.00
7844;DHT22;3967;48.702;9.326;2023-06-14T00:32:34;19.10;49.60
7844;DHT22;3967;48.702;9.326;2023-06-14T00:35:02;19.10;49.70
7844;DHT22;3967;48.702;9.326;2023-06-14T00:37:28;18.90;49.80
7844;DHT22;3967;48.702;9.326;2023-06-14T00:39:55;18.90;50.00
7844;DHT22;3967;48.702;9.326;2023-06-14T00:42:26;18.80;50.10
7844;DHT22;3967;48.702;9.326;2023-06-14T00:44:53;18.90;50.20
7844;DHT22;3967;48.702;9.326;2023-06-14T00:47:21;18.80;50.20
7844;DHT22;3967;48.702;9.326;2023-06-14T00:49:50;18.80;50.20
7844;DHT22;3967;48.702;9.326;2023-06-14T00:52:20;18.80;50.30
7844;DHT22;3967;48.702;9.326;2023-06-14T00:54:47;18.60;50.40
7844;DHT22;3967;48.702;9.326;2023-06-14T00:57:14;18.40;51.00
7844;DHT22;3967;48.702;9.326;2023-06-14T00:59:44;18.30;51.50
7844;DHT22;3967;48.702;9.326;2023-06-14T01:02:12;18.10;52.10
7844;DHT22;3967;48.702;9.326;2023-06-14T01:04:39;17.70;52.50
7844;DHT22;3967;48.702;9.326;2023-06-14T01:15:25;17.90;52.30
7844;DHT22;3967;48.702;9.326;2023-06-14T01:17:53;18.00;52.30
7844;DHT22;3967;48.702;9.326;2023-06-14T01:20:21;18.00;52.50
7844;DHT22;3967;48.702;9.326;2023-06-14T01:22:51;18.00;52.60
7844;DHT22;3967;48.702;9.326;2023-06-14T01:25:19;18.00;52.30
7844;DHT22;3967;48.702;9.326;2023-06-14T01:28:01;18.00;52.40
7844;DHT22;3967;48.702;9.326;2023-06-14T01:30:30;18.10;52.80
7844;DHT22;3967;48.702;9.326;2023-06-14T01:33:00;18.00;52.90
7844;DHT22;3967;48.702;9.326;2023-06-14T01:35:27;18.00;53.20
7844;DHT22;3967;48.702;9.326;2023-06-14T01:37:54;18.00;53.20
7844;DHT22;3967;48.702;9.326;2023-06-14T01:40:21;17.90;53.40
7844;DHT22;3967;48.702;9.326;2023-06-14T01:42:50;17.90;53.50
7844;DHT22;3967;48.702;9.326;2023-06-14T01:45:18;17.90;53.70
7844;DHT22;3967;48.702;9.326;2023-06-14T01:47:47;17.80;53.90
7844;DHT22;3967;48.702;9.326;2023-06-14T01:50:14;17.80;53.80
7844;DHT22;3967;48.702;9.326;2023-06-14T01:52:41;17.60;53.90
7844;DHT22;3967;48.702;9.326;2023-06-14T01:55:08;17.40;53.90
7844;DHT22;3967;48.702;9.326;2023-06-14T01:57:35;17.50;54.20
7844;DHT22;3967;48.702;9.326;2023-06-14T02:00:04;17.30;54.20
7844;DHT22;3967;48.702;9.326;2023-06-14T02:02:31;17.40;54.40
7844;DHT22;3967;48.702;9.326;2023-06-14T02:04:57;17.30;54.40
7844;DHT22;3967;48.702;9.326;2023-06-14T02:07:28;17.30;54.70
7844;DHT22;3967;48.702;9.326;2023-06-14T02:09:55;17.30;55.10
7844;DHT22;3967;48.702;9.326;2023-06-14T02:12:21;17.30;55.10
7844;DHT22;3967;48.702;9.326;2023-06-14T02:14:48;17.20;55.30
7844;DHT22;3967;48.702;9.326;2023-06-14T02:17:15;17.20;55.20
7844;DHT22;3967;48.702;9.326;2023-06-14T02:19:42;17.10;55.00
7844;DHT22;3967;48.702;9.326;2023-06-14T02:22:09;17.00;55.00
7844;DHT22;3967;48.702;9.326;2023-06-14T02:24:36;17.00;55.10
7844;DHT22;3967;48.702;9.326;2023-06-14T02:27:03;17.00;55.10
7844;DHT22;3967;48.702;9.326;2023-06-14T02:29:30;17.10;55.00
7844;DHT22;3967;48.702;9.326;2023-06-14T02:31:56;17.10;55.10
7844;DHT22;3967;48.702;9.326;2023-06-14T02:34:23;17.00;55.30
7844;DHT22;3967;48.702;9.326;2023-06-14T02:36:50;17.00;55.50
7844;DHT22;3967;48.702;9.326;2023-06-14T02:39:19;17.10;55.70
7844;DHT22;3967;48.702;9.326;2023-06-14T02:41:47;17.00;55.40
7844;DHT22;3967;48.702;9.326;2023-06-14T02:44:14;17.10;55.10
7844;DHT22;3967;48.702;9.326;2023-06-14T02:46:41;16.90;55.20
7844;DHT22;3967;48.702;9.326;2023-06-14T02:49:11;16.90;55.40
7844;DHT22;3967;48.702;9.326;2023-06-14T02:51:38;16.80;55.60
7844;DHT22;3967;48.702;9.326;2023-06-14T02:54:04;16.70;55.80
7844;DHT22;3967;48.702;9.326;2023-06-14T02:56:31;16.70;56.10
7844;DHT22;3967;48.702;9.326;2023-06-14T02:58:58;16.60;56.20
7844;DHT22;3967;48.702;9.326;2023-06-14T03:01:26;16.60;56.30
7844;DHT22;3967;48.702;9.326;2023-06-14T03:04:01;16.60;56.10
7844;DHT22;3967;48.702;9.326;2023-06-14T03:06:30;16.60;56.80
7844;DHT22;3967;48.702;9.326;2023-06-14T03:08:57;16.50;56.80
7844;DHT22;3967;48.702;9.326;2023-06-14T03:11:32;16.50;56.70
7844;DHT22;3967;48.702;9.326;2023-06-14T03:13:59;16.50;56.60
7844;DHT22;3967;48.702;9.326;2023-06-14T03:16:26;16.30;56.70
7844;DHT22;3967;48.702;9.326;2023-06-14T03:18:55;16.20;56.90
7844;DHT22;3967;48.702;9.326;2023-06-14T03:21:22;16.20;56.90
7844;DHT22;3967;48.702;9.326;2023-06-14T03:23:48;16.30;57.10
7844;DHT22;3967;48.702;9.326;2023-06-14T03:26:16;16.30;57.10
7844;DHT22;3967;48.702;9.326;2023-06-14T03:28:45;16.30;57.20
7844;DHT22;3967;48.702;9.326;2023-06-14T03:31:12;16.20;57.20
7844;DHT22;3967;48.702;9.326;2023-06-14T03:33:40;16.10;57.40
7844;DHT22;3967;48.702;9.326;2023-06-14T03:36:07;15.90;57.80
7844;DHT22;3967;48.702;9.326;2023-06-14T03:38:34;15.90;58.30
7844;DHT22;3967;48.702;9.326;2023-06-14T03:41:01;16.00;58.60
7844;DHT22;3967;48.702;9.326;2023-06-14T03:43:28;16.00;58.50
7844;DHT22;3967;48.702;9.326;2023-06-14T03:45:56;16.00;58.40
7844;DHT22;3967;48.702;9.326;2023-06-14T03:48:23;16.10;58.40
7844;DHT22;3967;48.702;9.326;2023-06-14T03:50:50;16.00;58.50
7844;DHT22;3967;48.702;9.326;2023-06-14T03:53:17;16.00;58.60
7844;DHT22;3967;48.702;9.326;2023-06-14T03:55:47;16.00;58.60
7844;DHT22;3967;48.702;9.326;2023-06-14T03:58:18;16.00;58.70
7844;DHT22;3967;48.702;9.326;2023-06-14T04:00:45;16.00;58.90
7844;DHT22;3967;48.702;9.326;2023-06-14T04:03:12;16.00;59.10
7844;DHT22;3967;48.702;9.326;2023-06-14T04:05:42;16.00;59.10
7844;DHT22;3967;48.702;9.326;2023-06-14T04:08:09;16.00;59.10
7844;DHT22;3967;48.702;9.326;2023-06-14T04:10:36;15.90;59.50
7844;DHT22;3967;48.702;9.326;2023-06-14T04:13:03;15.90;59.70
7844;DHT22;3967;48.702;9.326;2023-06-14T04:15:31;16.00;60.00
7844;DHT22;3967;48.702;9.326;2023-06-14T04:17:58;16.10;59.90
7844;DHT22;3967;48.702;9.326;2023-06-14T04:20:24;16.10;59.70
7844;DHT22;3967;48.702;9.326;2023-06-14T04:22:51;16.30;59.90
7844;DHT22;3967;48.702;9.326;2023-06-14T04:25:19;16.30;60.00
7844;DHT22;3967;48.702;9.326;2023-06-14T04:27:49;16.30;60.30
7844;DHT22;3967;48.702;9.326;2023-06-14T04:30:16;16.30;60.30
7844;DHT22;3967;48.702;9.326;2023-06-14T04:32:43;16.40;60.30
7844;DHT22;3967;48.702;9.326;2023-06-14T04:35:10;16.60;60.10
7844;DHT22;3967;48.702;9.326;2023-06-14T04:37:38;16.70;59.40
7844;DHT22;3967;48.702;9.326;2023-06-14T04:40:08;17.00;59.00
7844;DHT22;3967;48.702;9.326;2023-06-14T04:42:38;17.00;58.80
7844;DHT22;3967;48.702;9.326;2023-06-14T04:45:07;17.00;58.60
7844;DHT22;3967;48.702;9.326;2023-06-14T04:47:35;17.10;58.40
7844;DHT22;3967;48.702;9.326;2023-06-14T04:50:02;17.10;58.40
7844;DHT22;3967;48.702;9.326;2023-06-14T04:52:30;17.20;58.50
7844;DHT22;3967;48.702;9.326;2023-06-14T04:54:58;17.10;59.00
7844;DHT22;3967;48.702;9.326;2023-06-14T04:57:25;17.10;60.40
7844;DHT22;3967;48.702;9.326;2023-06-14T04:59:52;16.70;61.20
7844;DHT22;3967;48.702;9.326;2023-06-14T05:02:25;16.70;61.30
7844;DHT22;3967;48.702;9.326;2023-06-14T05:04:53;16.90;61.20
7844;DHT22;3967;48.702;9.326;2023-06-14T05:07:19;17.00;60.90
7844;DHT22;3967;48.702;9.326;2023-06-14T05:09:46;16.80;61.40
7844;DHT22;3967;48.702;9.326;2023-06-14T05:12:13;16.90;60.80
7844;DHT22;3967;48.702;9.326;2023-06-14T05:14:40;17.00;59.70
7844;DHT22;3967;48.702;9.326;2023-06-14T05:17:07;17.00;59.70
7844;DHT22;3967;48.702;9.326;2023-06-14T05:19:34;17.10;59.80
7844;DHT22;3967;48.702;9.326;2023-06-14T05:22:01;17.20;60.10
7844;DHT22;3967;48.702;9.326;2023-06-14T05:24:29;17.00;60.50
7844;DHT22;3967;48.702;9.326;2023-06-14T05:26:57;17.10;61.30
7844;DHT22;3967;48.702;9.326;2023-06-14T05:29:24;17.10;62.40
7844;DHT22;3967;48.702;9.326;2023-06-14T05:31:53;17.20;62.70
7844;DHT22;3967;48.702;9.326;2023-06-14T05:34:20;17.30;62.80
7844;DHT22;3967;48.702;9.326;2023-06-14T05:36:47;17.40;62.70
7844;DHT22;3967;48.702;9.326;2023-06-14T05:39:13;17.60;62.50
7844;DHT22;3967;48.702;9.326;2023-06-14T05:41:40;17.70;61.50
7844;DHT22;3967;48.702;9.326;2023-06-14T05:44:08;17.70;59.30
7844;DHT22;3967;48.702;9.326;2023-06-14T05:46:35;18.00;59.70
7844;DHT22;3967;48.702;9.326;2023-06-14T05:49:01;18.20;59.10
7844;DHT22;3967;48.702;9.326;2023-06-14T05:51:28;18.20;58.90
7844;DHT22;3967;48.702;9.326;2023-06-14T05:53:55;18.40;58.60
7844;DHT22;3967;48.702;9.326;2023-06-14T05:56:22;18.60;58.70
7844;DHT22;3967;48.702;9.326;2023-06-14T05:58:49;18.90;58.20
7844;DHT22;3967;48.702;9.326;2023-06-14T06:01:17;19.00;58.10
7844;DHT22;3967;48.702;9.326;2023-06-14T06:03:43;19.20;58.30
7844;DHT22;3967;48.702;9.326;2023-06-14T06:06:13;19.40;58.30
7844;DHT22;3967;48.702;9.326;2023-06-14T06:08:40;19.60;58.20
7844;DHT22;3967;48.702;9.326;2023-06-14T06:11:07;19.80;58.40
7844;DHT22;3967;48.702;9.326;2023-06-14T06:13:34;19.70;58.50
7844;DHT22;3967;48.702;9.326;2023-06-14T06:16:03;19.70;58.30
7844;DHT22;3967;48.702;9.326;2023-06-14T06:18:30;20.00;58.20
7844;DHT22;3967;48.702;9.326;2023-06-14T06:20:57;20.10;58.30
7844;DHT22;3967;48.702;9.326;2023-06-14T06:23:24;20.20;58.10
7844;DHT22;3967;48.702;9.326;2023-06-14T06:25:51;20.20;58.00
7844;DHT22;3967;48.702;9.326;2023-06-14T06:28:18;20.20;58.00
7844;DHT22;3967;48.702;9.326;2023-06-14T06:30:45;20.30;58.40
7844;DHT22;3967;48.702;9.326;2023-06-14T06:33:12;20.30;58.10
7844;DHT22;3967;48.702;9.326;2023-06-14T06:35:40;20.30;57.90
7844;DHT22;3967;48.702;9.326;2023-06-14T06:38:07;20.60;57.20
7844;DHT22;3967;48.702;9.326;2023-06-14T06:40:35;20.70;56.60
7844;DHT22;3967;48.702;9.326;2023-06-14T06:43:02;21.10;55.90
7844;DHT22;3967;48.702;9.326;2023-06-14T06:45:29;21.10;54.40
7844;DHT22;3967;48.702;9.326;2023-06-14T06:47:57;21.30;55.70
7844;DHT22;3967;48.702;9.326;2023-06-14T06:50:24;21.50;55.30
7844;DHT22;3967;48.702;9.326;2023-06-14T06:52:51;21.60;55.00
7844;DHT22;3967;48.702;9.326;2023-06-14T06:55:19;21.30;54.60
7844;DHT22;3967;48.702;9.326;2023-06-14T06:57:46;21.20;54.40
7844;DHT22;3967;48.702;9.326;2023-06-14T07:00:13;21.50;53.90
7844;DHT22;3967;48.702;9.326;2023-06-14T07:02:41;21.60;53.30
7844;DHT22;3967;48.702;9.326;2023-06-14T07:05:08;22.30;51.50
7844;DHT22;3967;48.702;9.326;2023-06-14T07:07:35;22.40;50.50
7844;DHT22;3967;48.702;9.326;2023-06-14T07:10:03;22.70;51.00
7844;DHT22;3967;48.702;9.326;2023-06-14T07:12:32;22.80;50.40
7844;DHT22;3967;48.702;9.326;2023-06-14T07:15:00;23.30;48.90
7844;DHT22;3967;48.702;9.326;2023-06-14T07:17:27;23.20;48.20
7844;DHT22;3967;48.702;9.326;2023-06-14T07:19:54;22.80;49.60
7844;DHT22;3967;48.702;9.326;2023-06-14T07:22:21;23.10;49.20
7844;DHT22;3967;48.702;9.326;2023-06-14T07:24:48;22.80;49.70
7844;DHT22;3967;48.702;9.326;2023-06-14T07:27:14;23.00;48.80
7844;DHT22;3967;48.702;9.326;2023-06-14T07:29:41;23.40;48.00
7844;DHT22;3967;48.702;9.326;2023-06-14T07:32:08;23.60;47.60
7844;DHT22;3967;48.702;9.326;2023-06-14T07:34:35;23.50;47.40
7844;DHT22;3967;48.702;9.326;2023-06-14T07:37:01;23.10;46.80
7844;DHT22;3967;48.702;9.326;2023-06-14T07:39:28;23.30;47.70
7844;DHT22;3967;48.702;9.326;2023-06-14T07:41:55;23.20;47.70
7844;DHT22;3967;48.702;9.326;2023-06-14T07:44:22;23.30;47.60
7844;DHT22;3967;48.702;9.326;2023-06-14T07:46:48;23.50;48.40
7844;DHT22;3967;48.702;9.326;2023-06-14T07:49:18;23.70;46.50
7844;DHT22;3967;48.702;9.326;2023-06-14T07:51:45;23.30;47.20
7844;DHT22;3967;48.702;9.326;2023-06-14T07:54:13;23.70;47.50
7844;DHT22;3967;48.702;9.326;2023-06-14T07:56:40;24.40;47.10
7844;DHT22;3967;48.702;9.326;2023-06-14T07:59:10;24.20;46.70
7844;DHT22;3967;48.702;9.326;2023-06-14T08:01:37;24.10;45.90
7844;DHT22;3967;48.702;9.326;2023-06-14T08:04:04;24.20;46.10
7844;DHT22;3967;48.702;9.326;2023-06-14T08:06:30;24.20;46.20
7844;DHT22;3967;48.702;9.326;2023-06-14T08:08:57;24.00;46.10
7844;DHT22;3967;48.702;9.326;2023-06-14T08:11:24;24.30;46.60
7844;DHT22;3967;48.702;9.326;2023-06-14T08:13:51;24.30;47.00
7844;DHT22;3967;48.702;9.326;2023-06-14T08:16:18;24.30;45.60
7844;DHT22;3967;48.702;9.326;2023-06-14T08:18:45;24.00;45.60
7844;DHT22;3967;48.702;9.326;2023-06-14T08:21:11;23.80;44.70
7844;DHT22;3967;48.702;9.326;2023-06-14T08:23:41;23.60;45.10
7844;DHT22;3967;48.702;9.326;2023-06-14T08:26:09;23.60;45.60
7844;DHT22;3967;48.702;9.326;2023-06-14T08:28:37;23.90;45.80
7844;DHT22;3967;48.702;9.326;2023-06-14T08:31:04;24.40;45.70
7844;DHT22;3967;48.702;9.326;2023-06-14T08:33:30;24.20;44.50
7844;DHT22;3967;48.702;9.326;2023-06-14T08:36:00;24.40;44.60
7844;DHT22;3967;48.702;9.326;2023-06-14T08:38:26;24.50;44.80
7844;DHT22;3967;48.702;9.326;2023-06-14T08:40:57;24.40;44.10
7844;DHT22;3967;48.702;9.326;2023-06-14T08:43:24;24.40;44.20
7844;DHT22;3967;48.702;9.326;2023-06-14T08:45:55;24.10;44.90
7844;DHT22;3967;48.702;9.326;2023-06-14T08:48:26;24.20;45.10
7844;DHT22;3967;48.702;9.326;2023-06-14T08:50:59;24.20;44.70
7844;DHT22;3967;48.702;9.326;2023-06-14T08:53:30;24.60;44.90
7844;DHT22;3967;48.702;9.326;2023-06-14T08:56:02;24.90;44.60
7844;DHT22;3967;48.702;9.326;2023-06-14T08:58:31;25.10;44.60
7844;DHT22;3967;48.702;9.326;2023-06-14T09:01:03;25.40;44.80
7844;DHT22;3967;48.702;9.326;2023-06-14T09:03:31;25.60;44.50
7844;DHT22;3967;48.702;9.326;2023-06-14T09:06:00;25.40;42.80
7844;DHT22;3967;48.702;9.326;2023-06-14T09:08:28;25.00;43.10
7844;DHT22;3967;48.702;9.326;2023-06-14T09:10:58;24.50;43.90
7844;DHT22;3967;48.702;9.326;2023-06-14T09:13:26;25.10;43.30
7844;DHT22;3967;48.702;9.326;2023-06-14T09:15:57;25.60;44.00
7844;DHT22;3967;48.702;9.326;2023-06-14T09:18:44;25.60;43.60
7844;DHT22;3967;48.702;9.326;2023-06-14T09:21:15;25.20;43.90
7844;DHT22;3967;48.702;9.326;2023-06-14T09:23:44;25.80;45.30
7844;DHT22;3967;48.702;9.326;2023-06-14T09:26:18;25.90;44.70
7844;DHT22;3967;48.702;9.326;2023-06-14T09:28:53;25.70;44.20
7844;DHT22;3967;48.702;9.326;2023-06-14T09:31:20;25.60;43.00
7844;DHT22;3967;48.702;9.326;2023-06-14T09:33:49;25.30;42.50
7844;DHT22;3967;48.702;9.326;2023-06-14T09:36:23;25.50;42.90
7844;DHT22;3967;48.702;9.326;2023-06-14T09:39:03;26.20;42.70
7844;DHT22;3967;48.702;9.326;2023-06-14T09:41:35;26.50;41.40
7844;DHT22;3967;48.702;9.326;2023-06-14T09:44:04;26.30;40.90
7844;DHT22;3967;48.702;9.326;2023-06-14T09:46:38;26.50;41.20
7844;DHT22;3967;48.702;9.326;2023-06-14T09:49:05;26.50;39.90
7844;DHT22;3967;48.702;9.326;2023-06-14T09:51:33;26.40;38.30
7844;DHT22;3967;48.702;9.326;2023-06-14T09:54:02;26.20;37.10
7844;DHT22;3967;48.702;9.326;2023-06-14T09:56:35;25.90;36.70
7844;DHT22;3967;48.702;9.326;2023-06-14T09:59:05;26.00;39.20
7844;DHT22;3967;48.702;9.326;2023-06-14T10:01:35;26.30;39.50
7844;DHT22;3967;48.702;9.326;2023-06-14T10:04:06;26.30;37.60
7844;DHT22;3967;48.702;9.326;2023-06-14T10:06:39;26.00;38.00
7844;DHT22;3967;48.702;9.326;2023-06-14T10:09:09;26.10;38.00
7844;DHT22;3967;48.702;9.326;2023-06-14T10:11:37;26.10;37.70
7844;DHT22;3967;48.702;9.326;2023-06-14T10:14:11;26.80;38.00
7844;DHT22;3967;48.702;9.326;2023-06-14T10:19:21;26.50;37.50
7844;DHT22;3967;48.702;9.326;2023-06-14T10:24:42;26.60;36.60
7844;DHT22;3967;48.702;9.326;2023-06-14T10:27:09;26.70;38.50
7844;DHT22;3967;48.702;9.326;2023-06-14T10:32:23;26.10;40.00
7844;DHT22;3967;48.702;9.326;2023-06-14T10:34:57;25.90;40.30
7844;DHT22;3967;48.702;9.326;2023-06-14T10:37:24;25.80;40.90
7844;DHT22;3967;48.702;9.326;2023-06-14T10:39:51;26.10;41.20
7844;DHT22;3967;48.702;9.326;2023-06-14T10:42:19;25.80;40.60
7844;DHT22;3967;48.702;9.326;2023-06-14T10:44:51;25.40;40.80
7844;DHT22;3967;48.702;9.326;2023-06-14T10:47:23;26.00;41.00
7844;DHT22;3967;48.702;9.326;2023-06-14T10:52:24;26.60;40.20
7844;DHT22;3967;48.702;9.326;2023-06-14T10:55:02;26.20;39.50
7844;DHT22;3967;48.702;9.326;2023-06-14T10:57:33;26.00;38.70
7844;DHT22;3967;48.702;9.326;2023-06-14T11:00:21;26.10;39.20
7844;DHT22;3967;48.702;9.326;2023-06-14T11:05:55;25.50;40.30
7844;DHT22;3967;48.702;9.326;2023-06-14T11:11:00;25.80;40.40
7844;DHT22;3967;48.702;9.326;2023-06-14T11:13:27;26.30;40.10
7844;DHT22;3967;48.702;9.326;2023-06-14T11:15:57;26.30;39.00
7844;DHT22;3967;48.702;9.326;2023-06-14T11:18:25;26.70;39.10
7844;DHT22;3967;48.702;9.326;2023-06-14T11:20:54;26.90;39.10
7844;DHT22;3967;48.702;9.326;2023-06-14T11:23:22;26.90;37.90
7844;DHT22;3967;48.702;9.326;2023-06-14T11:25:53;26.50;37.70
7844;DHT22;3967;48.702;9.326;2023-06-14T11:28:19;26.40;37.80
7844;DHT22;3967;48.702;9.326;2023-06-14T11:31:10;26.40;37.40
7844;DHT22;3967;48.702;9.326;2023-06-14T11:33:35;26.50;38.00
7844;DHT22;3967;48.702;9.326;2023-06-14T11:36:03;26.50;38.30
7844;DHT22;3967;48.702;9.326;2023-06-14T11:38:35;26.20;38.50
7844;DHT22;3967;48.702;9.326;2023-06-14T11:41:03;26.30;39.50
7844;DHT22;3967;48.702;9.326;2023-06-14T11:43:30;26.20;39.00
7844;DHT22;3967;48.702;9.326;2023-06-14T11:45:59;26.60;38.60
7844;DHT22;3967;48.702;9.326;2023-06-14T11:48:40;26.40;37.90
7844;DHT22;3967;48.702;9.326;2023-06-14T11:51:07;26.40;38.40
7844;DHT22;3967;48.702;9.326;2023-06-14T11:53:34;26.70;38.20
7844;DHT22;3967;48.702;9.326;2023-06-14T11:56:01;27.00;37.00
7844;DHT22;3967;48.702;9.326;2023-06-14T11:58:29;27.00;37.80
7844;DHT22;3967;48.702;9.326;2023-06-14T12:00:56;26.90;37.80
7844;DHT22;3967;48.702;9.326;2023-06-14T12:03:24;26.80;37.80
7844;DHT22;3967;48.702;9.326;2023-06-14T12:06:08;26.80;37.30
7844;DHT22;3967;48.702;9.326;2023-06-14T12:08:38;27.00;37.30
7844;DHT22;3967;48.702;9.326;2023-06-14T12:11:11;27.00;36.90
7844;DHT22;3967;48.702;9.326;2023-06-14T12:13:39;27.30;36.80
7844;DHT22;3967;48.702;9.326;2023-06-14T12:16:11;27.40;36.40
7844;DHT22;3967;48.702;9.326;2023-06-14T12:18:39;27.60;36.00
7844;DHT22;3967;48.702;9.326;2023-06-14T12:21:08;27.40;34.70
7844;DHT22;3967;48.702;9.326;2023-06-14T12:23:47;27.40;34.90
7844;DHT22;3967;48.702;9.326;2023-06-14T12:26:19;27.40;35.90
7844;DHT22;3967;48.702;9.326;2023-06-14T12:28:47;27.20;36.20
7844;DHT22;3967;48.702;9.326;2023-06-14T12:31:15;26.90;37.40
7844;DHT22;3967;48.702;9.326;2023-06-14T12:33:43;27.00;37.20
7844;DHT22;3967;48.702;9.326;2023-06-14T12:36:13;27.00;36.90
7844;DHT22;3967;48.702;9.326;2023-06-14T12:38:39;26.80;36.80
7844;DHT22;3967;48.702;9.326;2023-06-14T12:41:06;26.80;37.70
7844;DHT22;3967;48.702;9.326;2023-06-14T12:43:34;26.70;36.90
7844;DHT22;3967;48.702;9.326;2023-06-14T12:46:01;26.40;36.30
7844;DHT22;3967;48.702;9.326;2023-06-14T12:48:28;26.50;36.90
7844;DHT22;3967;48.702;9.326;2023-06-14T12:50:56;26.90;36.90
7844;DHT22;3967;48.702;9.326;2023-06-14T12:53:24;26.80;36.10
7844;DHT22;3967;48.702;9.326;2023-06-14T12:55:50;27.10;36.30
7844;DHT22;3967;48.702;9.326;2023-06-14T12:58:17;27.60;36.60
7844;DHT22;3967;48.702;9.326;2023-06-14T13:00:46;27.60;35.60
7844;DHT22;3967;48.702;9.326;2023-06-14T13:03:14;27.80;36.00
7844;DHT22;3967;48.702;9.326;2023-06-14T13:05:41;27.50;35.10
7844;DHT22;3967;48.702;9.326;2023-06-14T13:08:09;27.70;35.10
7844;DHT22;3967;48.702;9.326;2023-06-14T13:10:36;27.70;35.40
7844;DHT22;3967;48.702;9.326;2023-06-14T13:13:03;28.00;36.50
7844;DHT22;3967;48.702;9.326;2023-06-14T13:15:30;27.60;35.90
7844;DHT22;3967;48.702;9.326;2023-06-14T13:17:57;27.60;36.10
7844;DHT22;3967;48.702;9.326;2023-06-14T13:20:24;27.40;35.90
7844;DHT22;3967;48.702;9.326;2023-06-14T13:22:51;27.20;37.10
7844;DHT22;3967;48.702;9.326;2023-06-14T13:25:17;27.30;37.50
7844;DHT22;3967;48.702;9.326;2023-06-14T13:27:44;27.10;36.30
7844;DHT22;3967;48.702;9.326;2023-06-14T13:30:11;27.00;36.10
7844;DHT22;3967;48.702;9.326;2023-06-14T13:32:39;27.00;36.70
7844;DHT22;3967;48.702;9.326;2023-06-14T13:35:06;27.00;36.10
7844;DHT22;3967;48.702;9.326;2023-06-14T13:37:33;26.40;36.90
7844;DHT22;3967;48.702;9.326;2023-06-14T13:39:59;26.30;36.80
7844;DHT22;3967;48.702;9.326;2023-06-14T13:42:28;26.60;37.50
7844;DHT22;3967;48.702;9.326;2023-06-14T13:44:55;26.60;37.20
7844;DHT22;3967;48.702;9.326;2023-06-14T13:47:22;26.80;37.80
7844;DHT22;3967;48.702;9.326;2023-06-14T13:49:49;26.90;37.30
7844;DHT22;3967;48.702;9.326;2023-06-14T13:52:15;27.20;37.00
7844;DHT22;3967;48.702;9.326;2023-06-14T13:54:42;27.50;36.30
7844;DHT22;3967;48.702;9.326;2023-06-14T13:57:10;27.70;36.10
7844;DHT22;3967;48.702;9.326;2023-06-14T13:59:40;28.10;35.60
7844;DHT22;3967;48.702;9.326;2023-06-14T14:02:07;27.90;36.00
7844;DHT22;3967;48.702;9.326;2023-06-14T14:04:34;28.30;36.00
7844;DHT22;3967;48.702;9.326;2023-06-14T14:07:03;28.10;35.90
7844;DHT22;3967;48.702;9.326;2023-06-14T14:09:30;28.10;36.90
7844;DHT22;3967;48.702;9.326;2023-06-14T14:11:58;27.80;36.70
7844;DHT22;3967;48.702;9.326;2023-06-14T14:14:25;27.50;36.10
7844;DHT22;3967;48.702;9.326;2023-06-14T14:16:52;27.40;36.70
7844;DHT22;3967;48.702;9.326;2023-06-14T14:19:20;27.20;37.00
7844;DHT22;3967;48.702;9.326;2023-06-14T14:21:48;27.00;37.40
7844;DHT22;3967;48.702;9.326;2023-06-14T14:24:14;26.60;37.90
7844;DHT22;3967;48.702;9.326;2023-06-14T14:26:42;26.50;38.10
7844;DHT22;3967;48.702;9.326;2023-06-14T14:29:09;26.60;37.60
7844;DHT22;3967;48.702;9.326;2023-06-14T14:31:38;26.50;37.70
7844;DHT22;3967;48.702;9.326;2023-06-14T14:34:04;26.30;38.50
7844;DHT22;3967;48.702;9.326;2023-06-14T14:36:31;26.30;38.10
7844;DHT22;3967;48.702;9.326;2023-06-14T14:39:01;26.40;37.70
7844;DHT22;3967;48.702;9.326;2023-06-14T14:41:27;26.70;38.10
7844;DHT22;3967;48.702;9.326;2023-06-14T14:43:54;26.60;37.50
7844;DHT22;3967;48.702;9.326;2023-06-14T14:46:21;25.90;37.10
7844;DHT22;3967;48.702;9.326;2023-06-14T14:48:48;26.30;37.30
7844;DHT22;3967;48.702;9.326;2023-06-14T14:51:15;26.50;37.20
7844;DHT22;3967;48.702;9.326;2023-06-14T14:53:41;27.00;36.20
7844;DHT22;3967;48.702;9.326;2023-06-14T14:56:08;26.80;36.10
7844;DHT22;3967;48.702;9.326;2023-06-14T14:58:35;26.80;37.10
7844;DHT22;3967;48.702;9.326;2023-06-14T15:01:02;26.90;37.00
7844;DHT22;3967;48.702;9.326;2023-06-14T15:03:29;26.90;36.30
7844;DHT22;3967;48.702;9.326;2023-06-14T15:05:56;27.30;36.90
7844;DHT22;3967;48.702;9.326;2023-06-14T15:08:22;27.70;36.50
7844;DHT22;3967;48.702;9.326;2023-06-14T15:10:49;27.70;36.00
7844;DHT22;3967;48.702;9.326;2023-06-14T15:13:16;27.50;37.00
7844;DHT22;3967;48.702;9.326;2023-06-14T15:15:43;27.50;37.80
7844;DHT22;3967;48.702;9.326;2023-06-14T15:18:09;27.40;37.60
7844;DHT22;3967;48.702;9.326;2023-06-14T15:20:36;27.80;38.20
7844;DHT22;3967;48.702;9.326;2023-06-14T15:23:03;27.60;37.80
7844;DHT22;3967;48.702;9.326;2023-06-14T15:25:30;27.70;37.40
7844;DHT22;3967;48.702;9.326;2023-06-14T15:27:58;27.60;36.90
7844;DHT22;3967;48.702;9.326;2023-06-14T15:30:25;27.20;37.30
7844;DHT22;3967;48.702;9.326;2023-06-14T15:32:51;27.20;37.60
7844;DHT22;3967;48.702;9.326;2023-06-14T15:35:18;27.00;37.20
7844;DHT22;3967;48.702;9.326;2023-06-14T15:37:47;26.90;37.00
7844;DHT22;3967;48.702;9.326;2023-06-14T15:40:15;26.80;36.90
7844;DHT22;3967;48.702;9.326;2023-06-14T15:42:43;26.90;37.10
7844;DHT22;3967;48.702;9.326;2023-06-14T15:45:10;27.20;37.90
7844;DHT22;3967;48.702;9.326;2023-06-14T15:47:37;27.20;37.80
7844;DHT22;3967;48.702;9.326;2023-06-14T15:50:05;27.30;37.90
7844;DHT22;3967;48.702;9.326;2023-06-14T15:52:34;27.40;37.30
7844;DHT22;3967;48.702;9.326;2023-06-14T15:55:01;27.40;37.00
7844;DHT22;3967;48.702;9.326;2023-06-14T15:57:29;27.30;37.60
7844;DHT22;3967;48.702;9.326;2023-06-14T15:59:56;27.00;37.50
7844;DHT22;3967;48.702;9.326;2023-06-14T16:02:22;27.00;37.40
7844;DHT22;3967;48.702;9.326;2023-06-14T16:04:49;26.80;37.90
7844;DHT22;3967;48.702;9.326;2023-06-14T16:07:18;26.60;37.40
7844;DHT22;3967;48.702;9.326;2023-06-14T16:09:45;26.60;37.80
7844;DHT22;3967;48.702;9.326;2023-06-14T16:12:11;26.90;38.50
7844;DHT22;3967;48.702;9.326;2023-06-14T16:14:39;27.10;38.00
7844;DHT22;3967;48.702;9.326;2023-06-14T16:17:06;26.80;37.60
7844;DHT22;3967;48.702;9.326;2023-06-14T16:19:33;26.80;38.80
7844;DHT22;3967;48.702;9.326;2023-06-14T16:22:00;26.70;38.20
7844;DHT22;3967;48.702;9.326;2023-06-14T16:24:26;26.70;38.00
7844;DHT22;3967;48.702;9.326;2023-06-14T16:26:54;26.30;38.10
7844;DHT22;3967;48.702;9.326;2023-06-14T16:29:21;26.30;37.90
7844;DHT22;3967;48.702;9.326;2023-06-14T16:31:48;26.60;38.00